ELNO2: N. Canadian River, El Reno, OK

Data processed at Sun Dec 16 2018 23:32


All information presented herein is the property of the government of the United States of America and may be revised or deleted at any time without prior notice.
Dissemination of this information without the expressed written consent of the Public Affairs Office, Tulsa District U.S. Army Corps of Engineers is strictly prohibited.
These data are gathered electronically and, as presented, have not undergone any form of quality control. These data are not guaranteed to be valid or correct.
Go to home page.
Go to station list.
Go to home page.

Upstream stations:

Downstream station:
Previous Day
Next Day
Current Day
    
SHEF ID:       ELNO2     North Canadian River near El Ren
STATION TYPE:  

               PRECIP     STAGE  STAGE(2)  RIV-FLOW  WTR-TEMP   CONDUCT  BAT-LOAD
                   in        ft        ft       cfs         F   umho/cm      volt
              Ccp-Rev   Ccp-Rev   Ccp-Rev   Ccp-Rev   Ccp-Rev   Ccp-Rev   Ccp-Rev
(US/Central)
12/16 00:00      0.00      4.68      ----       181     41.81      1559     12.57
12/16 01:00      0.00      4.69      ----       183     41.79      1558     12.57
12/16 02:00      0.00      4.69      ----       183     41.79      1557     12.57
12/16 03:00      0.00      4.70      ----       184     41.76      1556     12.57
12/16 04:00      0.00      4.71      ----       186     41.68      1557     12.57
12/16 05:00      0.00      4.71      ----       186     41.56      1558     12.57
12/16 06:00      0.00      4.68      ----       181     41.45      1560     12.57
12/16 07:00      0.00      4.70      ----       184     41.38      1561     12.57
12/16 08:00      0.00      4.68      ----       181     41.31      1563     12.57
12/16 09:00      0.00      4.69      ----       183     41.34      1560     12.57
12/16 10:00      0.00      4.66      ----       178     41.45      1561     13.13
12/16 11:00      0.00      4.67      ----       180     41.70      1561     13.37
12/16 12:00      0.00      4.66      ----       178     42.30      1560     13.44
12/16 13:00      0.00      4.64      ----       175     42.78      1554     13.53
12/16 14:00      0.00      4.62      ----       172     43.39      1559     13.60
12/16 15:00      0.00      4.65      ----       177     43.88      1558     13.53
12/16 16:00      0.00      4.59      ----       168     44.01      1561     13.53
12/16 17:00      0.00      4.62      ----       172     43.77      1559     13.29
12/16 18:00      0.00      4.62      ----       172     43.56      1561     12.81
12/16 19:00      0.00      4.63      ----       174     43.43      1561     12.73
12/16 20:00      0.00      4.61      ----       171     43.18      1562     12.73
12/16 21:00      0.00      4.64      ----       175     42.91      1551     12.65
12/16 22:00      0.00      4.63      ----       174     42.73      1561     12.65
12/16 23:00      0.00      4.63      ----       174     42.58      1562     12.57